createdAt,value
2022-11-19T00:00:03.481Z,99714.08
2022-11-19T00:02:58.065Z,99717.08
2022-11-19T00:05:30.061Z,99719.77
2022-11-19T00:08:02.152Z,99712.36
2022-11-19T00:10:36.343Z,99699.98
2022-11-19T00:13:08.869Z,99702.00
2022-11-19T00:15:41.268Z,99702.54
2022-11-19T00:18:13.232Z,99706.42
2022-11-19T00:20:45.068Z,99706.33
2022-11-19T00:23:17.348Z,99710.86
2022-11-19T00:25:49.277Z,99710.96
2022-11-19T00:28:21.266Z,99713.51
2022-11-19T00:30:53.278Z,99703.63
2022-11-19T00:33:25.576Z,99703.05
2022-11-19T00:36:00.203Z,99700.86
2022-11-19T00:38:33.138Z,99702.46
2022-11-19T00:41:05.563Z,99701.02
2022-11-19T00:43:51.119Z,99700.79
2022-11-19T00:46:25.447Z,99705.04
2022-11-19T00:48:59.658Z,99707.67
2022-11-19T00:51:32.591Z,99710.66
2022-11-19T00:54:04.667Z,99705.84
2022-11-19T00:56:36.623Z,99702.44
2022-11-19T00:59:08.787Z,99701.56
2022-11-19T01:01:40.781Z,99699.10
2022-11-19T01:04:13.176Z,99699.10
2022-11-19T01:06:45.215Z,99703.80
2022-11-19T01:09:17.227Z,99704.80
2022-11-19T01:11:49.807Z,99705.63
2022-11-19T01:14:22.130Z,99705.45
2022-11-19T01:16:54.170Z,99706.40
2022-11-19T01:19:26.084Z,99709.35
2022-11-19T01:21:58.327Z,99707.36
2022-11-19T01:24:30.495Z,99710.13
2022-11-19T01:27:02.744Z,99712.98
2022-11-19T01:29:34.755Z,99715.92
2022-11-19T01:32:06.928Z,99715.77
2022-11-19T01:34:38.947Z,99717.27
2022-11-19T01:37:11.594Z,99717.63
2022-11-19T01:39:43.505Z,99715.81
2022-11-19T01:42:40.453Z,99714.33
2022-11-19T01:45:25.681Z,99719.20
2022-11-19T01:48:01.124Z,99714.06
2022-11-19T01:50:35.392Z,99718.13
2022-11-19T01:53:09.494Z,99719.92
2022-11-19T01:55:43.163Z,99718.20
2022-11-19T01:58:19.396Z,99718.06
2022-11-19T02:00:51.719Z,99720.77
2022-11-19T02:03:24.270Z,99720.88
2022-11-19T02:05:56.952Z,99724.05
2022-11-19T02:08:42.022Z,99726.25
2022-11-19T02:11:49.980Z,99728.35
2022-11-19T02:14:33.642Z,99724.77
2022-11-19T02:17:14.695Z,99730.91
2022-11-19T02:20:20.501Z,99729.38
2022-11-19T02:23:12.228Z,99735.17
2022-11-19T02:26:06.798Z,99735.66
2022-11-19T02:28:44.418Z,99730.51
2022-11-19T02:31:21.858Z,99734.10
2022-11-19T02:34:01.375Z,99731.70
2022-11-19T02:36:40.320Z,99732.30
2022-11-19T02:39:19.194Z,99731.50
2022-11-19T02:41:57.782Z,99735.11
2022-11-19T02:44:53.823Z,99736.59
2022-11-19T02:47:30.214Z,99739.82
2022-11-19T02:50:09.170Z,99742.96
2022-11-19T02:52:46.659Z,99742.42
2022-11-19T02:55:22.158Z,99741.20
2022-11-19T02:58:00.035Z,99737.32
2022-11-19T03:01:00.698Z,99737.63
2022-11-19T03:03:51.913Z,99741.96
2022-11-19T03:06:32.771Z,99743.58
2022-11-19T03:09:05.106Z,99741.55
2022-11-19T03:11:37.094Z,99745.91
2022-11-19T03:14:35.095Z,99744.43
2022-11-19T03:17:16.453Z,99747.91
2022-11-19T03:19:57.426Z,99739.29
2022-11-19T03:22:34.405Z,99742.02
2022-11-19T03:25:10.185Z,99745.31
2022-11-19T03:27:44.786Z,99746.38
2022-11-19T03:30:18.870Z,99746.38
2022-11-19T03:32:55.581Z,99750.62
2022-11-19T03:35:31.909Z,99752.18
2022-11-19T03:38:08.650Z,99754.30
2022-11-19T03:40:43.317Z,99755.81
2022-11-19T03:43:19.685Z,99753.98
2022-11-19T03:45:55.281Z,99750.00
2022-11-19T03:48:29.216Z,99750.20
2022-11-19T03:51:07.092Z,99748.46
2022-11-19T03:53:39.107Z,99747.52
2022-11-19T03:56:14.399Z,99750.44
2022-11-19T03:58:48.128Z,99750.67
2022-11-19T04:01:20.029Z,99751.89
2022-11-19T04:04:05.981Z,99750.96
2022-11-19T04:06:38.024Z,99749.35
2022-11-19T04:09:09.986Z,99752.65
2022-11-19T04:11:43.589Z,99756.66
2022-11-19T04:14:15.499Z,99760.79
2022-11-19T04:16:47.542Z,99760.73
2022-11-19T04:19:19.760Z,99753.48
2022-11-19T04:21:52.336Z,99756.84
2022-11-19T04:24:24.505Z,99754.39
2022-11-19T04:26:56.575Z,99752.66
2022-11-19T04:29:28.687Z,99757.48
2022-11-19T04:32:00.653Z,99758.70
2022-11-19T04:34:32.621Z,99756.36
2022-11-19T04:37:04.839Z,99758.44
2022-11-19T04:39:36.852Z,99760.38
2022-11-19T04:42:09.119Z,99760.64
2022-11-19T04:44:41.212Z,99757.05
2022-11-19T04:47:13.276Z,99755.92
2022-11-19T04:49:45.316Z,99752.45
2022-11-19T04:52:17.310Z,99750.58
2022-11-19T04:54:49.319Z,99748.56
2022-11-19T04:57:21.290Z,99743.17
2022-11-19T04:59:53.228Z,99745.38
2022-11-19T05:02:25.364Z,99743.88
2022-11-19T05:04:57.278Z,99741.40
2022-11-19T05:07:29.255Z,99742.72
2022-11-19T05:10:01.204Z,99740.81
2022-11-19T05:12:33.139Z,99737.69
2022-11-19T05:15:05.417Z,99739.48
2022-11-19T05:17:37.683Z,99739.61
2022-11-19T05:20:11.709Z,99737.04
2022-11-19T05:22:43.684Z,99733.88
2022-11-19T05:25:15.620Z,99730.13
2022-11-19T05:27:47.687Z,99735.73
2022-11-19T05:30:20.109Z,99735.91
2022-11-19T05:32:52.104Z,99737.47
2022-11-19T05:35:24.088Z,99738.20
2022-11-19T05:37:56.414Z,99742.67
2022-11-19T05:40:28.940Z,99745.64
2022-11-19T05:43:06.431Z,99751.43
2022-11-19T05:45:38.675Z,99752.20
2022-11-19T05:48:10.715Z,99755.90
2022-11-19T05:50:43.579Z,99756.02
2022-11-19T05:53:15.742Z,99761.43
2022-11-19T05:55:47.732Z,99760.62
2022-11-19T05:58:19.746Z,99761.81
2022-11-19T06:00:57.319Z,99768.86
2022-11-19T06:03:29.382Z,99771.39
2022-11-19T06:06:01.552Z,99772.38
2022-11-19T06:08:33.828Z,99776.77
2022-11-19T06:11:06.168Z,99776.51
2022-11-19T06:13:38.233Z,99776.65
2022-11-19T06:16:10.453Z,99781.08
2022-11-19T06:18:42.521Z,99784.45
2022-11-19T06:21:14.508Z,99787.14
2022-11-19T06:23:46.445Z,99788.19
2022-11-19T06:26:26.533Z,99790.71
2022-11-19T06:28:59.135Z,99790.34
2022-11-19T06:31:31.426Z,99795.23
2022-11-19T06:34:03.464Z,99801.35
2022-11-19T06:36:40.946Z,99804.91
2022-11-19T06:39:14.875Z,99803.88
2022-11-19T06:41:48.881Z,99801.67
2022-11-19T06:44:21.497Z,99804.90
2022-11-19T06:46:53.572Z,99804.83
2022-11-19T06:49:26.020Z,99807.67
2022-11-19T06:51:58.142Z,99809.81
2022-11-19T06:54:30.204Z,99806.46
2022-11-19T06:57:02.143Z,99806.50
2022-11-19T06:59:35.188Z,99804.42
2022-11-19T07:02:07.927Z,99808.63
2022-11-19T07:04:40.136Z,99812.48
2022-11-19T07:07:12.611Z,99809.48
2022-11-19T07:09:44.910Z,99811.69
2022-11-19T07:12:16.946Z,99811.59
2022-11-19T07:14:48.859Z,99812.34
2022-11-19T07:17:21.537Z,99812.08
2022-11-19T07:19:53.542Z,99813.69
2022-11-19T07:22:25.489Z,99813.16
2022-11-19T07:24:57.556Z,99811.40
2022-11-19T07:27:29.596Z,99816.47
2022-11-19T07:30:02.327Z,99822.58
2022-11-19T07:32:34.342Z,99819.43
2022-11-19T07:35:07.386Z,99822.57
2022-11-19T07:37:40.137Z,99818.83
2022-11-19T07:40:16.876Z,99817.38
2022-11-19T07:42:51.744Z,99816.95
2022-11-19T07:45:23.271Z,99813.31
2022-11-19T07:47:55.569Z,99811.70
2022-11-19T07:50:27.558Z,99812.59
2022-11-19T07:53:02.772Z,99814.02
2022-11-19T07:55:34.767Z,99820.09
2022-11-19T07:58:06.748Z,99818.91
2022-11-19T08:00:38.715Z,99821.26
2022-11-19T08:03:11.459Z,99818.59
2022-11-19T08:05:43.820Z,99821.62
2022-11-19T08:08:15.884Z,99818.46
2022-11-19T08:10:47.770Z,99818.06
2022-11-19T08:13:19.735Z,99821.23
2022-11-19T08:15:51.673Z,99826.30
2022-11-19T08:18:27.237Z,99828.31
2022-11-19T08:21:08.019Z,99831.39
2022-11-19T08:23:40.797Z,99832.15
2022-11-19T08:26:12.787Z,99832.20
2022-11-19T08:28:44.681Z,99833.71
2022-11-19T08:31:17.125Z,99834.64
2022-11-19T08:33:49.163Z,99833.59
2022-11-19T08:36:21.511Z,99832.66
2022-11-19T08:38:53.422Z,99833.02
2022-11-19T08:41:43.250Z,99834.83
2022-11-19T08:44:16.089Z,99838.98
2022-11-19T08:46:48.194Z,99842.08
2022-11-19T08:49:20.480Z,99839.46
2022-11-19T08:51:52.465Z,99845.23
2022-11-19T08:54:24.992Z,99849.11
2022-11-19T08:56:56.982Z,99848.32
2022-11-19T08:59:28.946Z,99847.86
2022-11-19T09:02:00.806Z,99851.94
2022-11-19T09:04:32.922Z,99852.25
2022-11-19T09:07:04.872Z,99850.59
2022-11-19T09:09:36.797Z,99846.89
2022-11-19T09:12:11.355Z,99837.74
2022-11-19T09:14:43.284Z,99838.05
2022-11-19T09:17:15.300Z,99839.70
2022-11-19T09:19:47.211Z,99836.35
2022-11-19T09:22:19.455Z,99834.20
2022-11-19T09:24:51.624Z,99839.27
2022-11-19T09:27:23.669Z,99837.96
2022-11-19T09:29:55.551Z,99839.75
2022-11-19T09:32:28.666Z,99835.20
2022-11-19T09:35:00.631Z,99834.24
2022-11-19T09:37:34.284Z,99833.25
2022-11-19T09:40:08.477Z,99837.78
2022-11-19T09:42:46.711Z,99838.55
2022-11-19T09:45:27.305Z,99835.80
2022-11-19T09:48:17.157Z,99839.19
2022-11-19T09:50:55.833Z,99837.50
2022-11-19T09:53:32.172Z,99832.15
2022-11-19T09:56:04.799Z,99834.20
2022-11-19T09:58:41.475Z,99829.23
2022-11-19T10:01:17.442Z,99830.66
2022-11-19T10:03:53.315Z,99830.64
2022-11-19T10:06:36.439Z,99831.30
2022-11-19T10:09:37.172Z,99828.82
2022-11-19T10:12:21.296Z,99829.99
2022-11-19T10:15:13.288Z,99829.93
2022-11-19T10:17:59.373Z,99833.09
2022-11-19T10:20:54.199Z,99832.40
2022-11-19T10:23:45.593Z,99827.69
2022-11-19T10:26:19.477Z,99826.80
2022-11-19T10:28:57.788Z,99824.47
2022-11-19T10:31:35.766Z,99827.58
2022-11-19T10:34:14.413Z,99825.23
2022-11-19T10:36:52.023Z,99826.60
2022-11-19T10:39:28.834Z,99829.86
2022-11-19T10:42:08.248Z,99827.81
2022-11-19T10:44:43.745Z,99829.48
2022-11-19T10:47:22.447Z,99823.36
2022-11-19T10:49:56.536Z,99824.61
2022-11-19T10:52:33.536Z,99824.02
2022-11-19T10:55:23.118Z,99826.92
2022-11-19T10:58:06.811Z,99825.85
2022-11-19T11:00:42.039Z,99824.16
2022-11-19T11:03:23.094Z,99820.05
2022-11-19T11:06:05.430Z,99823.05
2022-11-19T11:08:50.547Z,99815.14
2022-11-19T11:11:49.979Z,99817.23
2022-11-19T11:14:41.868Z,99814.61
2022-11-19T11:17:20.764Z,99814.44
2022-11-19T11:20:04.858Z,99816.38
2022-11-19T11:22:38.255Z,99812.73
2022-11-19T11:25:22.534Z,99809.18
2022-11-19T11:28:08.884Z,99810.77
2022-11-19T11:30:52.265Z,99807.80
2022-11-19T11:33:33.567Z,99807.89
2022-11-19T11:36:09.486Z,99811.02
2022-11-19T11:38:47.713Z,99809.34
2022-11-19T11:44:23.340Z,99803.08
2022-11-19T11:46:58.624Z,99805.53
2022-11-19T11:49:35.204Z,99802.67
2022-11-19T11:52:20.402Z,99801.31
2022-11-19T11:55:01.191Z,99801.02
2022-11-19T11:57:34.692Z,99798.94
2022-11-19T12:00:36.836Z,99795.04
2022-11-19T12:03:13.049Z,99799.88
2022-11-19T12:05:53.770Z,99800.92
2022-11-19T12:08:44.166Z,99801.59
2022-11-19T12:11:21.813Z,99798.17
2022-11-19T12:14:09.522Z,99799.61
2022-11-19T12:16:52.614Z,99802.38
2022-11-19T12:19:41.582Z,99799.81
2022-11-19T12:22:23.423Z,99795.59
2022-11-19T12:25:10.160Z,99799.29
2022-11-19T12:27:50.314Z,99795.02
2022-11-19T12:30:24.877Z,99797.91
2022-11-19T12:33:21.896Z,99795.68
2022-11-19T12:36:05.066Z,99795.33
2022-11-19T12:38:47.482Z,99794.92
2022-11-19T12:41:50.312Z,99792.67
2022-11-19T12:44:37.178Z,99790.92
2022-11-19T12:47:22.911Z,99789.39
2022-11-19T12:50:11.438Z,99786.64
2022-11-19T12:53:04.726Z,99788.66
2022-11-19T12:55:42.860Z,99792.25
2022-11-19T12:58:23.525Z,99788.36
2022-11-19T13:00:59.726Z,99783.17
2022-11-19T13:03:45.833Z,99784.44
2022-11-19T13:06:23.150Z,99784.70
2022-11-19T13:09:00.156Z,99784.84
2022-11-19T13:11:37.600Z,99787.44
2022-11-19T13:14:19.287Z,99792.05
2022-11-19T13:16:53.454Z,99792.38
2022-11-19T13:19:28.694Z,99792.86
2022-11-19T13:22:05.501Z,99793.02
2022-11-19T13:24:42.708Z,99796.46
2022-11-19T13:27:22.964Z,99797.43
2022-11-19T13:30:01.660Z,99793.73
2022-11-19T13:32:41.535Z,99800.75
2022-11-19T13:35:21.558Z,99801.18
2022-11-19T13:38:01.310Z,99794.23
2022-11-19T13:40:38.469Z,99799.41
2022-11-19T13:43:33.009Z,99808.46
2022-11-19T13:46:16.671Z,99805.48
2022-11-19T13:48:55.193Z,99808.38
2022-11-19T13:51:34.481Z,99809.61
2022-11-19T13:54:08.541Z,99811.25
2022-11-19T13:56:47.467Z,99813.95
2022-11-19T13:59:32.514Z,99811.33
2022-11-19T14:02:34.249Z,99815.74
2022-11-19T14:05:40.541Z,99814.31
2022-11-19T14:08:29.656Z,99817.91
2022-11-19T14:11:16.266Z,99825.80
2022-11-19T14:14:32.080Z,99828.69
2022-11-19T14:17:35.071Z,99827.96
2022-11-19T14:20:52.869Z,99834.21
2022-11-19T14:24:06.628Z,99838.11
2022-11-19T14:27:17.915Z,99835.14
2022-11-19T14:30:00.584Z,99840.27
2022-11-19T14:32:41.632Z,99840.64
2022-11-19T14:35:42.014Z,99841.23
2022-11-19T14:38:36.043Z,99845.92
2022-11-19T14:41:22.288Z,99847.21
2022-11-19T14:44:10.256Z,99857.80
2022-11-19T14:46:45.496Z,99862.14
2022-11-19T14:49:38.120Z,99865.38
2022-11-19T14:52:22.724Z,99866.20
2022-11-19T14:54:58.686Z,99869.95
2022-11-19T14:57:34.159Z,99873.66
2022-11-19T15:00:28.384Z,99872.47
2022-11-19T15:03:01.938Z,99877.76
2022-11-19T15:05:36.717Z,99874.56
2022-11-19T15:08:31.215Z,99875.33
2022-11-19T15:11:09.782Z,99876.20
2022-11-19T15:13:42.636Z,99879.65
2022-11-19T15:16:18.620Z,99881.44
2022-11-19T15:19:22.876Z,99882.43
2022-11-19T15:22:18.568Z,99881.83
2022-11-19T15:25:15.093Z,99880.77
2022-11-19T15:28:16.069Z,99875.79
2022-11-19T15:30:58.324Z,99873.33
2022-11-19T15:33:55.247Z,99868.80
2022-11-19T15:36:41.127Z,99868.95
2022-11-19T15:39:17.887Z,99868.65
2022-11-19T15:42:03.854Z,99872.42
2022-11-19T15:44:47.646Z,99870.18
2022-11-19T15:47:24.507Z,99866.73
2022-11-19T15:49:58.791Z,99866.79
2022-11-19T15:52:33.289Z,99865.75
2022-11-19T15:55:19.002Z,99864.38
2022-11-19T15:57:55.991Z,99865.80
2022-11-19T16:00:29.553Z,99862.59
2022-11-19T16:03:02.058Z,99863.88
2022-11-19T16:05:34.763Z,99863.33
2022-11-19T16:08:12.234Z,99865.56
2022-11-19T16:10:47.522Z,99865.21
2022-11-19T16:13:45.599Z,99867.29
2022-11-19T16:16:40.321Z,99861.45
2022-11-19T16:19:16.277Z,99860.65
2022-11-19T16:21:52.360Z,99858.38
2022-11-19T16:24:45.068Z,99856.05
2022-11-19T16:27:23.914Z,99855.89
2022-11-19T16:29:56.081Z,99858.52
2022-11-19T16:32:29.476Z,99858.81
2022-11-19T16:35:20.822Z,99857.69
2022-11-19T16:37:53.654Z,99862.17
2022-11-19T16:40:26.512Z,99858.02
2022-11-19T16:43:01.471Z,99860.21
2022-11-19T16:45:33.206Z,99859.93
2022-11-19T16:48:05.245Z,99862.36
2022-11-19T16:50:45.338Z,99866.41
2022-11-19T16:53:48.128Z,99867.66
2022-11-19T16:56:20.547Z,99874.84
2022-11-19T16:58:56.071Z,99875.39
2022-11-19T17:01:29.921Z,99868.33
2022-11-19T17:04:07.551Z,99869.54
2022-11-19T17:06:40.227Z,99873.39
2022-11-19T17:09:33.021Z,99871.90
2022-11-19T17:12:22.311Z,99878.59
2022-11-19T17:14:58.256Z,99877.57
2022-11-19T17:17:40.447Z,99876.83
2022-11-19T17:21:01.117Z,99880.08
2022-11-19T17:23:36.996Z,99881.41
2022-11-19T17:26:16.666Z,99881.77
2022-11-19T17:28:51.546Z,99878.27
2022-11-19T17:31:26.396Z,99879.63
2022-11-19T17:33:59.878Z,99875.42
2022-11-19T17:36:32.174Z,99871.74
2022-11-19T17:39:06.724Z,99874.44
2022-11-19T17:41:56.401Z,99875.23
2022-11-19T17:44:34.892Z,99873.61
2022-11-19T17:47:21.886Z,99868.70
2022-11-19T17:49:55.305Z,99863.29
2022-11-19T17:52:29.521Z,99863.09
2022-11-19T17:55:15.079Z,99858.54
2022-11-19T17:57:47.375Z,99859.14
2022-11-19T18:00:19.968Z,99856.64
2022-11-19T18:02:51.921Z,99857.21
2022-11-19T18:05:26.977Z,99855.23
2022-11-19T18:07:57.409Z,99855.88
2022-11-19T18:10:29.419Z,99855.98
2022-11-19T18:13:01.563Z,99858.73
2022-11-19T18:15:33.500Z,99857.39
2022-11-19T18:18:05.744Z,99859.37
2022-11-19T18:20:38.552Z,99865.18
2022-11-19T18:23:14.765Z,99869.24
2022-11-19T18:25:46.679Z,99868.16
2022-11-19T18:28:19.231Z,99869.27
2022-11-19T18:30:51.155Z,99871.67
2022-11-19T18:33:23.081Z,99873.05
2022-11-19T18:35:55.019Z,99875.60
2022-11-19T18:38:26.907Z,99876.86
2022-11-19T18:40:58.980Z,99874.86
2022-11-19T18:43:48.553Z,99875.41
2022-11-19T18:46:20.514Z,99878.26
2022-11-19T18:48:53.739Z,99884.51
2022-11-19T18:51:27.433Z,99882.05
2022-11-19T18:53:59.447Z,99885.91
2022-11-19T18:56:31.563Z,99888.89
2022-11-19T18:59:05.149Z,99892.02
2022-11-19T19:01:37.143Z,99891.02
2022-11-19T19:04:10.245Z,99892.38
2022-11-19T19:06:43.054Z,99889.21
2022-11-19T19:09:20.495Z,99893.84
2022-11-19T19:12:13.764Z,99890.46
2022-11-19T19:14:48.080Z,99890.86
2022-11-19T19:17:20.651Z,99893.64
2022-11-19T19:19:52.540Z,99892.23
2022-11-19T19:22:24.477Z,99891.45
2022-11-19T19:24:58.288Z,99882.27
2022-11-19T19:27:30.582Z,99878.86
2022-11-19T19:30:02.775Z,99877.14
2022-11-19T19:32:34.713Z,99876.52
2022-11-19T19:35:08.207Z,99877.77
2022-11-19T19:37:42.126Z,99880.05
2022-11-19T19:40:16.147Z,99883.16
2022-11-19T19:42:48.077Z,99884.13
2022-11-19T19:45:19.954Z,99883.06
2022-11-19T19:47:52.203Z,99885.81
2022-11-19T19:50:24.140Z,99883.52
2022-11-19T19:52:58.152Z,99885.91
2022-11-19T19:55:30.141Z,99891.58
2022-11-19T19:58:07.382Z,99886.78
2022-11-19T20:00:39.656Z,99889.55
2022-11-19T20:03:15.653Z,99886.45
2022-11-19T20:05:51.819Z,99890.20
2022-11-19T20:08:23.757Z,99889.05
2022-11-19T20:10:56.180Z,99887.96
2022-11-19T20:13:32.259Z,99889.91
2022-11-19T20:16:11.896Z,99889.81
2022-11-19T20:18:48.044Z,99889.61
2022-11-19T20:21:22.644Z,99890.86
2022-11-19T20:23:55.538Z,99887.98
2022-11-19T20:26:29.161Z,99892.34
2022-11-19T20:29:03.066Z,99893.67
2022-11-19T20:31:35.799Z,99898.52
2022-11-19T20:34:07.941Z,99896.87
2022-11-19T20:36:40.083Z,99898.88
2022-11-19T20:39:12.750Z,99894.87
2022-11-19T20:42:02.521Z,99896.59
2022-11-19T20:44:34.687Z,99896.15
2022-11-19T20:47:06.677Z,99898.79
2022-11-19T20:49:39.740Z,99893.80
2022-11-19T20:52:13.403Z,99888.84
2022-11-19T20:54:45.462Z,99888.86
2022-11-19T20:57:18.959Z,99887.15
2022-11-19T20:59:51.032Z,99885.89
2022-11-19T21:02:23.162Z,99886.20
2022-11-19T21:04:56.435Z,99885.58
2022-11-19T21:07:28.428Z,99886.94
2022-11-19T21:10:06.300Z,99885.07
2022-11-19T21:13:00.693Z,99885.55
2022-11-19T21:15:35.884Z,99882.20
2022-11-19T21:18:08.100Z,99879.27
2022-11-19T21:20:40.218Z,99884.10
2022-11-19T21:23:12.334Z,99883.88
2022-11-19T21:25:44.681Z,99882.11
2022-11-19T21:28:16.699Z,99879.17
2022-11-19T21:30:53.630Z,99883.27
2022-11-19T21:33:27.203Z,99878.80
2022-11-19T21:36:00.780Z,99875.96
2022-11-19T21:38:33.049Z,99878.75
2022-11-19T21:41:05.762Z,99877.67
2022-11-19T21:43:38.715Z,99876.60
2022-11-19T21:46:11.011Z,99877.59
2022-11-19T21:48:43.607Z,99875.30
2022-11-19T21:51:17.954Z,99876.08
2022-11-19T21:53:56.168Z,99875.04
2022-11-19T21:56:33.796Z,99873.34
2022-11-19T21:59:09.775Z,99872.91
2022-11-19T22:01:41.742Z,99876.73
2022-11-19T22:04:15.512Z,99876.48
2022-11-19T22:06:47.507Z,99872.86
2022-11-19T22:09:19.732Z,99872.23
2022-11-19T22:11:51.895Z,99871.23
2022-11-19T22:14:24.015Z,99870.31
2022-11-19T22:16:55.976Z,99873.14
2022-11-19T22:19:27.938Z,99871.33
2022-11-19T22:22:00.262Z,99873.50
2022-11-19T22:24:32.198Z,99872.44
2022-11-19T22:27:04.318Z,99875.41
2022-11-19T22:29:36.841Z,99875.16
2022-11-19T22:32:09.088Z,99872.89
2022-11-19T22:34:41.025Z,99869.55
2022-11-19T22:37:13.065Z,99870.59
2022-11-19T22:39:45.228Z,99867.98
2022-11-19T22:42:17.221Z,99870.80
2022-11-19T22:44:49.194Z,99865.64
2022-11-19T22:47:21.102Z,99867.64
2022-11-19T22:49:52.922Z,99866.50
2022-11-19T22:52:24.819Z,99863.20
2022-11-19T22:54:56.758Z,99864.57
2022-11-19T22:57:28.980Z,99864.27
2022-11-19T23:00:00.890Z,99868.87
2022-11-19T23:02:33.057Z,99865.23
2022-11-19T23:05:05.381Z,99864.45
2022-11-19T23:07:37.557Z,99864.40
2022-11-19T23:10:10.989Z,99862.20
2022-11-19T23:13:00.239Z,99865.00
2022-11-19T23:15:32.563Z,99862.48
2022-11-19T23:18:04.785Z,99862.13
2022-11-19T23:20:36.820Z,99861.02
2022-11-19T23:23:08.762Z,99858.29
2022-11-19T23:25:40.735Z,99856.90
2022-11-19T23:28:12.706Z,99854.40
2022-11-19T23:30:44.650Z,99853.25
2022-11-19T23:33:16.691Z,99857.73
2022-11-19T23:35:49.189Z,99855.34
2022-11-19T23:38:21.130Z,99855.60
2022-11-19T23:41:01.386Z,99853.34
2022-11-19T23:43:34.066Z,99855.94
2022-11-19T23:46:11.179Z,99854.21
2022-11-19T23:48:46.516Z,99853.01
2022-11-19T23:51:20.662Z,99852.29
2022-11-19T23:53:53.060Z,99848.39
2022-11-19T23:56:25.991Z,99850.78
2022-11-19T23:58:58.184Z,99851.40
